createdAt,value
2022-08-03T00:00:40.207Z,99522.25
2022-08-03T00:01:44.791Z,99510.59
2022-08-03T00:02:48.684Z,99521.41
2022-08-03T00:03:52.818Z,99518.88
2022-08-03T00:04:56.570Z,99511.63
2022-08-03T00:06:04.103Z,99499.28
2022-08-03T00:07:08.967Z,99521.41
2022-08-03T00:08:13.819Z,99528.50
2022-08-03T00:09:23.541Z,99510.94
2022-08-03T00:10:27.781Z,99517.34
2022-08-03T00:11:32.152Z,99523.28
2022-08-03T00:12:36.670Z,99513.31
2022-08-03T00:13:40.570Z,99522.44
2022-08-03T00:14:44.360Z,99525.44
2022-08-03T00:15:48.201Z,99523.44
2022-08-03T00:16:52.042Z,99513.31
2022-08-03T00:17:55.929Z,99532.88
2022-08-03T00:19:00.808Z,99513.81
2022-08-03T00:20:05.402Z,99523.75
2022-08-03T00:21:09.875Z,99524.94
2022-08-03T00:22:14.117Z,99526.47
2022-08-03T00:23:18.291Z,99522.91
2022-08-03T00:24:22.210Z,99526.47
2022-08-03T00:25:26.029Z,99526.47
2022-08-03T00:26:30.416Z,99520.38
2022-08-03T00:27:34.802Z,99524.44
2022-08-03T00:28:39.535Z,99527.31
2022-08-03T00:29:59.642Z,99526.47
2022-08-03T00:31:04.223Z,99527.47
2022-08-03T00:32:08.145Z,99529.50
2022-08-03T00:33:16.460Z,99526.16
2022-08-03T00:34:36.301Z,99517.03
2022-08-03T00:35:50.132Z,99532.22
2022-08-03T00:36:55.001Z,99519.03
2022-08-03T00:38:00.031Z,99530.00
2022-08-03T00:39:04.384Z,99529.16
2022-08-03T00:40:10.398Z,99523.09
2022-08-03T00:41:15.579Z,99529.50
2022-08-03T00:42:19.652Z,99525.13
2022-08-03T00:43:29.301Z,99524.44
2022-08-03T00:44:44.256Z,99531.88
2022-08-03T00:45:48.468Z,99526.47
2022-08-03T00:46:54.714Z,99531.69
2022-08-03T00:47:59.387Z,99536.25
2022-08-03T00:49:03.386Z,99535.59
2022-08-03T00:50:07.957Z,99527.47
2022-08-03T00:51:11.791Z,99531.03
2022-08-03T00:52:17.491Z,99540.81
2022-08-03T00:53:22.382Z,99538.09
2022-08-03T00:54:27.818Z,99531.88
2022-08-03T00:55:31.924Z,99540.50
2022-08-03T00:56:37.836Z,99541.34
2022-08-03T00:57:44.052Z,99532.88
2022-08-03T00:58:48.031Z,99536.94
2022-08-03T00:59:52.259Z,99541.81
2022-08-03T01:00:56.089Z,99542.84
2022-08-03T01:02:00.014Z,99532.03
2022-08-03T01:03:04.027Z,99530.84
2022-08-03T01:04:07.893Z,99546.38
2022-08-03T01:05:12.329Z,99543.84
2022-08-03T01:06:36.402Z,99532.72
2022-08-03T01:08:16.604Z,99538.94
2022-08-03T01:09:50.063Z,99522.03
2022-08-03T01:11:15.971Z,99537.75
2022-08-03T01:12:45.855Z,99531.50
2022-08-03T01:14:19.342Z,99535.38
2022-08-03T01:15:40.928Z,99535.53
2022-08-03T01:17:02.340Z,99525.06
2022-08-03T01:18:33.056Z,99531.31
2022-08-03T01:19:51.038Z,99536.88
2022-08-03T01:21:01.391Z,99533.81
2022-08-03T01:22:23.706Z,99528.94
2022-08-03T01:24:21.393Z,99533.81
2022-08-03T01:26:22.511Z,99539.75
2022-08-03T01:27:43.707Z,99533.16
2022-08-03T01:29:09.206Z,99537.88
2022-08-03T01:30:14.332Z,99536.03
2022-08-03T01:31:27.665Z,99542.59
2022-08-03T01:32:53.471Z,99544.28
2022-08-03T01:34:14.759Z,99540.88
2022-08-03T01:35:29.594Z,99529.59
2022-08-03T01:36:43.545Z,99541.25
2022-08-03T01:38:01.391Z,99539.88
2022-08-03T01:39:11.717Z,99537.16
2022-08-03T01:40:18.038Z,99512.00
2022-08-03T01:41:37.360Z,99535.34
2022-08-03T01:42:44.861Z,99537.16
2022-08-03T01:44:28.448Z,99523.00
2022-08-03T01:45:19.066Z,99538.19
2022-08-03T01:46:26.461Z,99535.66
2022-08-03T01:47:33.076Z,99532.59
2022-08-03T01:48:42.307Z,99503.22
2022-08-03T01:49:48.269Z,99536.84
2022-08-03T01:50:56.139Z,99536.84
2022-08-03T01:52:05.390Z,99527.38
2022-08-03T01:53:12.156Z,99512.84
2022-08-03T01:54:17.709Z,99534.97
2022-08-03T01:55:25.279Z,99529.75
2022-08-03T01:56:32.338Z,99527.19
2022-08-03T01:58:05.634Z,99530.91
2022-08-03T01:59:05.696Z,99529.41
2022-08-03T02:00:10.863Z,99527.72
2022-08-03T02:01:17.524Z,99529.75
2022-08-03T02:02:33.044Z,99509.13
2022-08-03T02:04:00.243Z,99523.16
2022-08-03T02:05:10.625Z,99521.47
2022-08-03T02:06:59.661Z,99530.03
2022-08-03T02:07:45.429Z,99525.66
2022-08-03T02:08:53.305Z,99530.50
2022-08-03T02:09:59.910Z,99525.13
2022-08-03T02:11:06.147Z,99527.69
2022-08-03T02:12:12.597Z,99539.44
2022-08-03T02:13:20.915Z,99503.50
2022-08-03T02:14:27.060Z,99530.38
2022-08-03T02:15:33.752Z,99527.97
2022-08-03T02:16:38.949Z,99531.53
2022-08-03T02:17:45.997Z,99532.19
2022-08-03T02:18:50.422Z,99530.84
2022-08-03T02:19:58.715Z,99524.78
2022-08-03T02:21:10.815Z,99527.63
2022-08-03T02:22:16.487Z,99528.31
2022-08-03T02:23:21.198Z,99528.31
2022-08-03T02:24:25.423Z,99532.88
2022-08-03T02:25:32.265Z,99508.03
2022-08-03T02:26:40.335Z,99525.94
2022-08-03T02:27:55.473Z,99524.94
2022-08-03T02:29:13.935Z,99531.03
2022-08-03T02:30:20.506Z,99523.59
2022-08-03T02:31:31.285Z,99525.28
2022-08-03T02:32:43.042Z,99529.66
2022-08-03T02:34:03.724Z,99523.13
2022-08-03T02:35:13.790Z,99523.25
2022-08-03T02:36:25.667Z,99513.31
2022-08-03T02:37:35.930Z,99527.50
2022-08-03T02:38:44.569Z,99531.22
2022-08-03T02:39:53.541Z,99527.69
2022-08-03T02:41:00.633Z,99516.69
2022-08-03T02:42:09.149Z,99516.84
2022-08-03T02:43:23.673Z,99529.84
2022-08-03T02:44:32.789Z,99523.59
2022-08-03T02:45:45.938Z,99529.66
2022-08-03T02:46:57.890Z,99494.56
2022-08-03T02:48:07.136Z,99529.66
2022-08-03T02:49:40.830Z,99519.69
2022-08-03T02:50:42.957Z,99524.25
2022-08-03T02:51:52.085Z,99519.50
2022-08-03T02:52:59.065Z,99518.84
2022-08-03T02:54:05.489Z,99524.72
2022-08-03T02:55:12.597Z,99521.19
2022-08-03T02:56:19.263Z,99523.75
2022-08-03T02:57:27.552Z,99526.59
2022-08-03T02:58:33.866Z,99527.44
2022-08-03T02:59:39.646Z,99531.13
2022-08-03T03:00:46.198Z,99518.00
2022-08-03T03:01:51.821Z,99524.91
2022-08-03T03:03:02.954Z,99525.75
2022-08-03T03:04:10.222Z,99500.38
2022-08-03T03:05:54.568Z,99521.19
2022-08-03T03:06:43.297Z,99522.91
2022-08-03T03:07:53.145Z,99522.91
2022-08-03T03:08:59.930Z,99532.81
2022-08-03T03:10:05.597Z,99526.91
2022-08-03T03:11:11.685Z,99531.66
2022-08-03T03:12:18.496Z,99527.25
2022-08-03T03:13:23.214Z,99529.13
2022-08-03T03:14:33.199Z,99527.41
2022-08-03T03:15:41.423Z,99536.66
2022-08-03T03:16:50.698Z,99534.97
2022-08-03T03:18:02.892Z,99534.97
2022-08-03T03:19:09.590Z,99531.44
2022-08-03T03:20:15.964Z,99525.81
2022-08-03T03:21:37.377Z,99536.84
2022-08-03T03:22:45.263Z,99539.53
2022-08-03T03:23:50.757Z,99537.81
2022-08-03T03:24:56.151Z,99529.84
2022-08-03T03:26:00.969Z,99536.44
2022-08-03T03:27:05.396Z,99536.06
2022-08-03T03:28:11.869Z,99536.72
2022-08-03T03:29:16.795Z,99527.59
2022-08-03T03:30:20.794Z,99532.66
2022-08-03T03:31:25.137Z,99536.66
2022-08-03T03:32:30.650Z,99535.81
2022-08-03T03:33:36.583Z,99537.00
2022-08-03T03:34:41.403Z,99537.53
2022-08-03T03:35:48.675Z,99541.91
2022-08-03T03:36:52.953Z,99534.97
2022-08-03T03:37:57.646Z,99549.00
2022-08-03T03:39:15.142Z,99537.19
2022-08-03T03:40:19.931Z,99538.88
2022-08-03T03:41:24.829Z,99539.72
2022-08-03T03:42:28.849Z,99533.50
2022-08-03T03:43:33.626Z,99532.66
2022-08-03T03:44:37.599Z,99538.72
2022-08-03T03:45:44.619Z,99542.59
2022-08-03T03:46:48.821Z,99542.59
2022-08-03T03:47:53.369Z,99542.75
2022-08-03T03:48:57.423Z,99538.38
2022-08-03T03:50:04.727Z,99549.66
2022-08-03T03:51:10.107Z,99546.97
2022-08-03T03:52:14.154Z,99546.81
2022-08-03T03:53:18.357Z,99540.91
2022-08-03T03:54:22.497Z,99557.75
2022-08-03T03:55:30.642Z,99549.66
2022-08-03T03:56:34.556Z,99564.00
2022-08-03T03:57:38.629Z,99559.44
2022-08-03T03:58:42.493Z,99555.06
2022-08-03T03:59:46.405Z,99561.84
2022-08-03T04:00:51.175Z,99563.81
2022-08-03T04:01:58.856Z,99558.44
2022-08-03T04:03:03.261Z,99552.38
2022-08-03T04:04:25.677Z,99565.38
2022-08-03T04:05:48.165Z,99564.38
2022-08-03T04:07:10.617Z,99564.19
2022-08-03T04:08:38.137Z,99555.25
2022-08-03T04:10:14.100Z,99568.56
2022-08-03T04:11:30.271Z,99572.97
2022-08-03T04:12:38.995Z,99558.44
2022-08-03T04:14:11.167Z,99562.88
2022-08-03T04:15:18.135Z,99560.66
2022-08-03T04:16:28.206Z,99567.94
2022-08-03T04:17:33.136Z,99569.63
2022-08-03T04:18:41.925Z,99571.31
2022-08-03T04:19:54.099Z,99572.03
2022-08-03T04:21:04.896Z,99573.00
2022-08-03T04:22:14.554Z,99576.44
2022-08-03T04:23:24.873Z,99548.50
2022-08-03T04:24:39.081Z,99566.50
2022-08-03T04:25:44.710Z,99571.72
2022-08-03T04:26:52.883Z,99575.25
2022-08-03T04:28:08.240Z,99569.56
2022-08-03T04:29:29.284Z,99573.78
2022-08-03T04:30:38.230Z,99578.16
2022-08-03T04:31:46.929Z,99577.16
2022-08-03T04:32:52.451Z,99579.66
2022-08-03T04:33:57.676Z,99583.06
2022-08-03T04:35:01.798Z,99575.31
2022-08-03T04:36:10.300Z,99572.50
2022-08-03T04:37:30.513Z,99571.13
2022-08-03T04:38:56.917Z,99581.44
2022-08-03T04:40:06.247Z,99587.53
2022-08-03T04:41:11.204Z,99582.13
2022-08-03T04:42:19.058Z,99585.66
2022-08-03T04:43:26.051Z,99587.34
2022-08-03T04:44:31.956Z,99580.81
2022-08-03T04:45:37.596Z,99587.53
2022-08-03T04:46:50.529Z,99590.78
2022-08-03T04:47:58.078Z,99591.13
2022-08-03T04:49:02.967Z,99593.50
2022-08-03T04:50:12.527Z,99595.69
2022-08-03T04:51:18.343Z,99605.16
2022-08-03T04:52:22.594Z,99585.94
2022-08-03T04:53:26.605Z,99596.59
2022-08-03T04:54:31.323Z,99597.75
2022-08-03T04:55:36.807Z,99601.28
2022-08-03T04:56:41.920Z,99585.78
2022-08-03T04:57:45.888Z,99586.31
2022-08-03T04:58:49.821Z,99591.38
2022-08-03T05:00:01.499Z,99589.34
2022-08-03T05:01:06.848Z,99574.84
2022-08-03T05:02:10.670Z,99578.88
2022-08-03T05:03:23.803Z,99587.53
2022-08-03T05:04:28.518Z,99592.47
2022-08-03T05:05:49.429Z,99597.50
2022-08-03T05:06:55.860Z,99599.56
2022-08-03T05:08:00.774Z,99599.19
2022-08-03T05:09:07.785Z,99594.16
2022-08-03T05:10:16.507Z,99597.03
2022-08-03T05:11:20.760Z,99594.50
2022-08-03T05:12:25.844Z,99588.25
2022-08-03T05:13:31.129Z,99596.88
2022-08-03T05:14:39.750Z,99596.03
2022-08-03T05:15:43.671Z,99566.16
2022-08-03T05:16:47.757Z,99593.31
2022-08-03T05:17:51.660Z,99595.19
2022-08-03T05:18:55.438Z,99592.66
2022-08-03T05:19:59.525Z,99589.25
2022-08-03T05:21:03.576Z,99589.91
2022-08-03T05:22:07.640Z,99582.13
2022-08-03T05:23:11.797Z,99584.44
2022-08-03T05:24:15.776Z,99586.78
2022-08-03T05:25:21.431Z,99589.28
2022-08-03T05:26:28.237Z,99578.25
2022-08-03T05:27:32.244Z,99590.75
2022-08-03T05:28:36.139Z,99591.38
2022-08-03T05:29:40.074Z,99590.28
2022-08-03T05:30:44.245Z,99592.59
2022-08-03T05:31:48.158Z,99586.13
2022-08-03T05:32:53.650Z,99584.88
2022-08-03T05:33:58.081Z,99585.28
2022-08-03T05:35:57.397Z,99591.34
2022-08-03T05:36:25.995Z,99582.44
2022-08-03T05:37:30.094Z,99586.56
2022-08-03T05:38:35.412Z,99588.16
2022-08-03T05:39:39.563Z,99590.81
2022-08-03T05:40:56.836Z,99562.91
2022-08-03T05:42:02.904Z,99594.19
2022-08-03T05:43:06.922Z,99593.66
2022-08-03T05:44:11.103Z,99591.06
2022-08-03T05:45:15.124Z,99588.44
2022-08-03T05:46:18.931Z,99589.38
2022-08-03T05:47:23.054Z,99586.94
2022-08-03T05:48:27.216Z,99580.22
2022-08-03T05:49:31.327Z,99594.25
2022-08-03T05:50:39.897Z,99595.19
2022-08-03T05:51:46.985Z,99586.94
2022-08-03T05:53:03.854Z,99590.22
2022-08-03T05:54:07.986Z,99588.22
2022-08-03T05:55:14.114Z,99582.59
2022-08-03T05:56:18.282Z,99582.13
2022-08-03T05:57:22.437Z,99586.88
2022-08-03T05:58:26.264Z,99592.84
2022-08-03T05:59:38.492Z,99585.97
2022-08-03T06:00:42.547Z,99573.16
2022-08-03T06:01:46.953Z,99596.59
2022-08-03T06:02:51.352Z,99593.06
2022-08-03T06:03:55.245Z,99588.59
2022-08-03T06:04:59.111Z,99581.75
2022-08-03T06:06:02.938Z,99592.16
2022-08-03T06:07:07.101Z,99590.38
2022-08-03T06:08:10.971Z,99589.44
2022-08-03T06:09:19.789Z,99584.22
2022-08-03T06:10:35.007Z,99591.69
2022-08-03T06:11:42.310Z,99595.69
2022-08-03T06:12:51.208Z,99594.66
2022-08-03T06:13:57.447Z,99590.25
2022-08-03T06:15:01.712Z,99581.38
2022-08-03T06:16:06.378Z,99588.53
2022-08-03T06:17:10.796Z,99588.44
2022-08-03T06:18:16.497Z,99585.81
2022-08-03T06:19:20.678Z,99575.19
2022-08-03T06:20:26.619Z,99591.28
2022-08-03T06:21:31.327Z,99592.84
2022-08-03T06:22:36.271Z,99595.06
2022-08-03T06:23:55.680Z,99586.34
2022-08-03T06:25:04.076Z,99601.53
2022-08-03T06:26:09.160Z,99587.94
2022-08-03T06:27:14.237Z,99599.31
2022-08-03T06:28:51.500Z,99587.81
2022-08-03T06:29:42.409Z,99592.91
2022-08-03T06:30:47.058Z,99590.81
2022-08-03T06:31:53.918Z,99586.41
2022-08-03T06:32:57.823Z,99591.00
2022-08-03T06:34:32.839Z,99585.13
2022-08-03T06:35:29.573Z,99594.03
2022-08-03T06:36:34.010Z,99593.53
2022-08-03T06:37:46.770Z,99595.75
2022-08-03T06:38:50.582Z,99592.72
2022-08-03T06:39:54.885Z,99590.81
2022-08-03T06:40:58.889Z,99573.25
2022-08-03T06:42:02.875Z,99591.06
2022-08-03T06:43:12.338Z,99594.38
2022-08-03T06:44:16.724Z,99587.56
2022-08-03T06:45:20.895Z,99580.84
2022-08-03T06:46:26.017Z,99590.91
2022-08-03T06:47:30.019Z,99595.34
2022-08-03T06:48:34.942Z,99599.81
2022-08-03T06:49:38.744Z,99592.47
2022-08-03T06:50:44.528Z,99595.84
2022-08-03T06:52:05.268Z,99590.78
2022-08-03T06:53:11.384Z,99595.94
2022-08-03T06:54:24.672Z,99597.22
2022-08-03T06:55:28.955Z,99592.03
2022-08-03T06:56:32.708Z,99594.41
2022-08-03T06:57:36.539Z,99595.31
2022-08-03T06:58:40.529Z,99600.22
2022-08-03T07:00:09.903Z,99581.06
2022-08-03T07:01:09.215Z,99601.53
2022-08-03T07:02:19.050Z,99587.13
2022-08-03T07:03:23.887Z,99592.13
2022-08-03T07:04:27.944Z,99603.25
2022-08-03T07:05:36.118Z,99597.78
2022-08-03T07:06:41.147Z,99600.16
2022-08-03T07:07:45.348Z,99600.88
2022-08-03T07:08:52.301Z,99604.16
2022-08-03T07:09:58.295Z,99609.19
2022-08-03T07:11:02.914Z,99601.56
2022-08-03T07:12:08.504Z,99606.41
2022-08-03T07:13:13.534Z,99596.69
2022-08-03T07:14:17.236Z,99605.28
2022-08-03T07:15:54.600Z,99595.97
2022-08-03T07:16:45.448Z,99601.91
2022-08-03T07:17:49.391Z,99599.56
2022-08-03T07:18:53.186Z,99595.97
2022-08-03T07:19:58.106Z,99603.38
2022-08-03T07:21:01.987Z,99599.06
2022-08-03T07:22:05.897Z,99603.56
2022-08-03T07:23:10.147Z,99603.09
2022-08-03T07:24:21.813Z,99599.38
2022-08-03T07:25:26.280Z,99611.44
2022-08-03T07:26:30.497Z,99601.06
2022-08-03T07:27:34.749Z,99608.38
2022-08-03T07:28:38.509Z,99602.47
2022-08-03T07:29:42.604Z,99609.53
2022-08-03T07:30:46.739Z,99602.31
2022-08-03T07:31:50.877Z,99597.78
2022-08-03T07:32:55.041Z,99597.38
2022-08-03T07:33:59.082Z,99603.38
2022-08-03T07:35:16.907Z,99604.88
2022-08-03T07:36:28.777Z,99601.13
2022-08-03T07:37:33.925Z,99597.75
2022-08-03T07:38:38.151Z,99598.59
2022-08-03T07:39:42.267Z,99599.09
2022-08-03T07:40:46.700Z,99597.34
2022-08-03T07:41:52.067Z,99603.94
2022-08-03T07:42:56.142Z,99608.38
2022-08-03T07:44:00.643Z,99599.53
2022-08-03T07:45:06.114Z,99600.16
2022-08-03T07:46:10.100Z,99603.34
2022-08-03T07:47:22.778Z,99606.75
2022-08-03T07:48:27.049Z,99607.81
2022-08-03T07:49:32.158Z,99599.97
2022-08-03T07:50:36.257Z,99604.16
2022-08-03T07:51:40.706Z,99597.56
2022-08-03T07:52:51.724Z,99601.53
2022-08-03T07:53:57.962Z,99594.41
2022-08-03T07:55:02.128Z,99602.50
2022-08-03T07:56:06.446Z,99578.66
2022-08-03T07:57:15.789Z,99592.97
2022-08-03T07:58:24.015Z,99591.72
2022-08-03T07:59:28.831Z,99587.06
2022-08-03T08:00:53.475Z,99593.81
2022-08-03T08:01:57.836Z,99593.31
2022-08-03T08:03:02.516Z,99594.41
2022-08-03T08:04:06.514Z,99590.47
2022-08-03T08:05:11.393Z,99593.63
2022-08-03T08:06:16.706Z,99591.00
2022-08-03T08:07:20.817Z,99588.69
2022-08-03T08:08:25.096Z,99590.19
2022-08-03T08:09:29.116Z,99590.31
2022-08-03T08:10:33.341Z,99591.00
2022-08-03T08:11:40.099Z,99586.34
2022-08-03T08:12:44.549Z,99585.53
2022-08-03T08:13:48.417Z,99597.25
2022-08-03T08:14:52.654Z,99588.25
2022-08-03T08:15:57.471Z,99594.13
2022-08-03T08:17:04.455Z,99592.63
2022-08-03T08:18:11.470Z,99587.66
2022-08-03T08:19:16.924Z,99589.50
2022-08-03T08:20:34.881Z,99593.31
2022-08-03T08:21:53.633Z,99588.19
2022-08-03T08:23:19.913Z,99581.53
2022-08-03T08:24:34.368Z,99587.34
2022-08-03T08:25:38.681Z,99588.16
2022-08-03T08:26:42.679Z,99587.44
2022-08-03T08:28:31.930Z,99575.00
2022-08-03T08:29:13.689Z,99588.06
2022-08-03T08:30:20.914Z,99595.38
2022-08-03T08:31:27.677Z,99588.69
2022-08-03T08:32:32.397Z,99589.03
2022-08-03T08:34:01.462Z,99573.50
2022-08-03T08:35:00.750Z,99584.63
2022-08-03T08:36:05.183Z,99587.28
2022-08-03T08:37:09.285Z,99588.75
2022-08-03T08:38:13.269Z,99589.59
2022-08-03T08:39:17.588Z,99595.59
2022-08-03T08:40:23.850Z,99586.06
2022-08-03T08:41:32.071Z,99589.19
2022-08-03T08:42:40.298Z,99592.47
2022-08-03T08:43:48.726Z,99592.16
2022-08-03T08:44:53.163Z,99579.63
2022-08-03T08:46:00.030Z,99599.59
2022-08-03T08:47:05.049Z,99595.28
2022-08-03T08:48:13.516Z,99591.66
2022-08-03T08:49:23.819Z,99590.00
2022-08-03T08:50:28.416Z,99589.22
2022-08-03T08:51:59.353Z,99591.94
2022-08-03T08:53:04.475Z,99594.03
2022-08-03T08:54:10.097Z,99583.44
2022-08-03T08:55:20.759Z,99584.81
2022-08-03T08:56:27.255Z,99587.50
2022-08-03T08:57:49.847Z,99583.91
2022-08-03T08:58:59.385Z,99589.88
2022-08-03T09:00:10.080Z,99581.22
2022-08-03T09:01:14.310Z,99583.63
2022-08-03T09:02:19.078Z,99587.63
2022-08-03T09:03:29.742Z,99584.84
2022-08-03T09:04:35.096Z,99576.59
2022-08-03T09:05:55.306Z,99592.75
2022-08-03T09:07:19.241Z,99576.13
2022-08-03T09:08:24.629Z,99582.38
2022-08-03T09:10:10.901Z,99583.88
2022-08-03T09:10:53.025Z,99582.84
2022-08-03T09:12:09.024Z,99563.81
2022-08-03T09:13:22.363Z,99579.88
2022-08-03T09:14:36.739Z,99584.47
2022-08-03T09:15:42.562Z,99581.81
2022-08-03T09:17:05.461Z,99583.59
2022-08-03T09:18:09.992Z,99558.13
2022-08-03T09:19:15.634Z,99587.03
2022-08-03T09:20:22.614Z,99570.16
2022-08-03T09:21:32.606Z,99583.34
2022-08-03T09:22:53.112Z,99572.06
2022-08-03T09:24:02.862Z,99571.22
2022-08-03T09:25:24.386Z,99577.44
2022-08-03T09:26:32.175Z,99573.59
2022-08-03T09:27:46.941Z,99574.88
2022-08-03T09:29:07.139Z,99567.19
2022-08-03T09:30:34.519Z,99563.53
2022-08-03T09:31:47.074Z,99568.13
2022-08-03T09:32:51.437Z,99572.41
2022-08-03T09:34:01.475Z,99569.50
2022-08-03T09:35:06.616Z,99563.00
2022-08-03T09:36:38.494Z,99560.91
2022-08-03T09:38:12.027Z,99575.44
2022-08-03T09:39:15.795Z,99572.94
2022-08-03T09:40:36.638Z,99564.47
2022-08-03T09:41:44.255Z,99573.19
2022-08-03T09:42:57.863Z,99569.94
2022-08-03T09:44:02.074Z,99568.81
2022-08-03T09:45:07.003Z,99568.09
2022-08-03T09:46:11.006Z,99569.38
2022-08-03T09:47:28.360Z,99568.16
2022-08-03T09:48:37.563Z,99569.84
2022-08-03T09:49:56.189Z,99567.06
2022-08-03T09:51:12.765Z,99563.59
2022-08-03T09:52:39.438Z,99562.59
2022-08-03T09:53:51.477Z,99547.25
2022-08-03T09:56:32.514Z,99566.19
2022-08-03T09:56:48.153Z,99557.59
2022-08-03T09:57:52.989Z,99567.38
2022-08-03T09:58:57.281Z,99559.75
2022-08-03T10:00:12.371Z,99556.50
2022-08-03T10:01:25.323Z,99563.34
2022-08-03T10:02:29.585Z,99562.06
2022-08-03T10:04:03.427Z,99556.72
2022-08-03T10:05:01.893Z,99562.13
2022-08-03T10:06:19.939Z,99553.69
2022-08-03T10:07:25.430Z,99556.22
2022-08-03T10:08:32.160Z,99559.00
2022-08-03T10:09:39.223Z,99554.75
2022-08-03T10:10:46.487Z,99556.56
2022-08-03T10:11:50.670Z,99559.47
2022-08-03T10:12:54.829Z,99556.59
2022-08-03T10:14:01.445Z,99544.44
2022-08-03T10:15:07.157Z,99550.56
2022-08-03T10:16:39.925Z,99555.56
2022-08-03T10:17:44.115Z,99558.56
2022-08-03T10:18:48.068Z,99555.13
2022-08-03T10:19:52.392Z,99556.19
2022-08-03T10:21:05.602Z,99555.59
2022-08-03T10:22:37.505Z,99548.66
2022-08-03T10:23:42.887Z,99553.31
2022-08-03T10:25:10.063Z,99553.56
2022-08-03T10:26:19.403Z,99553.00
2022-08-03T10:27:26.975Z,99553.19
2022-08-03T10:28:50.129Z,99537.69
2022-08-03T10:29:59.316Z,99555.84
2022-08-03T10:31:07.987Z,99551.03
2022-08-03T10:32:30.795Z,99553.44
2022-08-03T10:33:51.765Z,99548.91
2022-08-03T10:35:20.112Z,99549.72
2022-08-03T10:36:31.037Z,99555.56
2022-08-03T10:37:56.428Z,99549.47
2022-08-03T10:39:03.928Z,99543.47
2022-08-03T10:40:46.802Z,99538.19
2022-08-03T10:41:51.100Z,99542.25
2022-08-03T10:43:13.433Z,99547.97
2022-08-03T10:44:24.911Z,99538.78
2022-08-03T10:45:29.275Z,99544.03
2022-08-03T10:46:39.289Z,99550.09
2022-08-03T10:47:49.132Z,99549.25
2022-08-03T10:48:54.224Z,99547.34
2022-08-03T10:50:00.285Z,99543.16
2022-08-03T10:51:07.055Z,99548.72
2022-08-03T10:52:13.794Z,99542.06
2022-08-03T10:53:38.295Z,99539.16
2022-08-03T10:55:07.548Z,99540.25
2022-08-03T10:56:52.232Z,99528.69
2022-08-03T10:57:59.183Z,99531.63
2022-08-03T10:59:03.713Z,99510.31
2022-08-03T11:00:09.734Z,99527.66
2022-08-03T11:01:14.627Z,99532.56
2022-08-03T11:02:19.808Z,99531.94
2022-08-03T11:03:24.020Z,99534.56
2022-08-03T11:04:30.331Z,99529.50
2022-08-03T11:05:54.644Z,99529.84
2022-08-03T11:07:26.091Z,99529.31
2022-08-03T11:08:37.479Z,99530.25
2022-08-03T11:09:56.465Z,99525.69
2022-08-03T11:11:28.798Z,99535.72
2022-08-03T11:12:34.318Z,99532.22
2022-08-03T11:13:38.927Z,99530.63
2022-08-03T11:14:50.517Z,99526.25
2022-08-03T11:16:01.690Z,99529.09
2022-08-03T11:17:14.440Z,99527.03
2022-08-03T11:18:19.215Z,99526.63
2022-08-03T11:19:28.245Z,99518.88
2022-08-03T11:20:51.374Z,99524.59
2022-08-03T11:21:58.059Z,99531.34
2022-08-03T11:23:03.236Z,99526.34
2022-08-03T11:24:07.546Z,99521.31
2022-08-03T11:25:53.969Z,99525.50
2022-08-03T11:26:36.498Z,99519.19
2022-08-03T11:27:40.568Z,99513.72
2022-08-03T11:28:47.443Z,99518.34
2022-08-03T11:29:58.381Z,99512.06
2022-08-03T11:31:48.743Z,99498.19
2022-08-03T11:32:49.191Z,99517.47
2022-08-03T11:34:12.548Z,99521.03
2022-08-03T11:35:22.949Z,99516.63
2022-08-03T11:36:32.002Z,99520.41
2022-08-03T11:38:03.004Z,99516.22
2022-08-03T11:39:17.284Z,99514.31
2022-08-03T11:40:53.024Z,99506.72
2022-08-03T11:41:57.057Z,99506.72
2022-08-03T11:43:01.903Z,99506.09
2022-08-03T11:44:05.968Z,99509.31
2022-08-03T11:45:10.184Z,99475.56
2022-08-03T11:46:28.472Z,99507.66
2022-08-03T11:47:50.881Z,99511.22
2022-08-03T11:49:09.979Z,99502.78
2022-08-03T11:50:17.390Z,99498.13
2022-08-03T11:51:32.399Z,99500.03
2022-08-03T11:52:40.610Z,99496.47
2022-08-03T11:53:44.766Z,99497.91
2022-08-03T11:54:57.023Z,99495.84
2022-08-03T11:56:03.494Z,99495.22
2022-08-03T11:57:09.206Z,99496.72
2022-08-03T11:59:10.607Z,99491.31
2022-08-03T11:59:42.676Z,99492.38
2022-08-03T12:00:47.139Z,99490.09
2022-08-03T12:01:51.539Z,99491.63
2022-08-03T12:03:08.921Z,99495.19
2022-08-03T12:04:13.056Z,99487.63
2022-08-03T12:05:17.137Z,99477.81
2022-08-03T12:06:21.318Z,99487.88
2022-08-03T12:08:03.212Z,99492.50
2022-08-03T12:08:52.078Z,99476.53
2022-08-03T12:10:14.671Z,99484.72
2022-08-03T12:11:18.954Z,99486.63
2022-08-03T12:12:22.979Z,99491.72
2022-08-03T12:14:43.924Z,99479.97
2022-08-03T12:15:07.532Z,99480.78
2022-08-03T12:16:19.035Z,99468.00
2022-08-03T12:17:23.185Z,99481.16
2022-08-03T12:18:27.487Z,99481.16
2022-08-03T12:19:44.026Z,99480.31
2022-08-03T12:20:51.167Z,99485.38
2022-08-03T12:21:57.225Z,99479.66
2022-08-03T12:23:07.598Z,99487.03
2022-08-03T12:24:12.505Z,99469.84
2022-08-03T12:25:39.049Z,99474.44
2022-08-03T12:26:58.372Z,99477.53
2022-08-03T12:28:36.037Z,99471.44
2022-08-03T12:29:37.871Z,99470.63
2022-08-03T12:30:42.477Z,99477.34
2022-08-03T12:31:46.808Z,99475.69
2022-08-03T12:32:50.939Z,99477.00
2022-08-03T12:34:03.567Z,99462.75
2022-08-03T12:35:08.712Z,99470.06
2022-08-03T12:36:12.923Z,99463.78
2022-08-03T12:37:23.977Z,99462.75
2022-08-03T12:38:29.659Z,99470.28
2022-08-03T12:39:34.744Z,99464.59
2022-08-03T12:40:39.097Z,99468.00
2022-08-03T12:41:43.401Z,99472.41
2022-08-03T12:42:47.828Z,99460.88
2022-08-03T12:43:52.465Z,99457.06
2022-08-03T12:44:56.591Z,99463.59
2022-08-03T12:46:20.134Z,99464.19
2022-08-03T12:47:24.211Z,99465.88
2022-08-03T12:48:29.676Z,99463.13
2022-08-03T12:49:52.824Z,99458.72
2022-08-03T12:51:11.057Z,99449.16
2022-08-03T12:52:16.464Z,99451.41
2022-08-03T12:53:30.526Z,99448.84
2022-08-03T12:54:36.382Z,99455.00
2022-08-03T12:55:57.930Z,99449.53
2022-08-03T12:57:15.633Z,99455.63
2022-08-03T12:58:35.563Z,99441.22
2022-08-03T12:59:53.265Z,99455.91
2022-08-03T13:00:57.967Z,99447.31
2022-08-03T13:02:04.329Z,99451.72
2022-08-03T13:03:38.892Z,99450.63
2022-08-03T13:04:38.202Z,99457.78
2022-08-03T13:05:45.936Z,99448.81
2022-08-03T13:07:02.755Z,99453.22
2022-08-03T13:08:23.125Z,99448.19
2022-08-03T13:09:29.005Z,99451.34
2022-08-03T13:10:35.530Z,99451.16
2022-08-03T13:11:55.507Z,99442.72
2022-08-03T13:13:03.868Z,99449.25
2022-08-03T13:14:07.950Z,99443.16
2022-08-03T13:15:11.893Z,99437.28
2022-08-03T13:16:19.296Z,99444.41
2022-08-03T13:17:24.103Z,99447.97
2022-08-03T13:18:28.250Z,99450.69
2022-08-03T13:19:34.758Z,99444.84
2022-08-03T13:20:39.336Z,99434.75
2022-08-03T13:21:53.523Z,99440.00
2022-08-03T13:23:15.389Z,99448.59
2022-08-03T13:24:26.535Z,99448.81
2022-08-03T13:25:31.264Z,99444.41
2022-08-03T13:26:35.505Z,99449.03
2022-08-03T13:28:13.911Z,99439.75
2022-08-03T13:29:04.655Z,99445.63
2022-08-03T13:30:10.577Z,99449.22
2022-08-03T13:31:14.651Z,99430.53
2022-08-03T13:32:18.783Z,99438.03
2022-08-03T13:33:22.996Z,99435.28
2022-08-03T13:34:27.099Z,99444.97
2022-08-03T13:35:30.973Z,99438.63
2022-08-03T13:36:59.162Z,99439.69
2022-08-03T13:37:59.911Z,99441.16
2022-08-03T13:39:04.307Z,99422.09